sensor_id;sensor_type;location;lat;lon;timestamp;temperature;humidity
21163;DHT22;10739;52.198;20.908;2023-12-07T00:01:10;-1.00;99.90
21163;DHT22;10739;52.198;20.908;2023-12-07T00:03:37;-1.00;99.90
21163;DHT22;10739;52.198;20.908;2023-12-07T00:06:03;-1.10;99.90
21163;DHT22;10739;52.198;20.908;2023-12-07T00:08:29;-1.10;99.90
21163;DHT22;10739;52.198;20.908;2023-12-07T00:10:55;-1.10;99.90
21163;DHT22;10739;52.198;20.908;2023-12-07T00:13:22;-1.10;99.90
21163;DHT22;10739;52.198;20.908;2023-12-07T00:15:48;-1.10;99.90
21163;DHT22;10739;52.198;20.908;2023-12-07T00:18:14;-1.10;99.90
21163;DHT22;10739;52.198;20.908;2023-12-07T00:20:40;-1.10;99.90
21163;DHT22;10739;52.198;20.908;2023-12-07T00:23:06;-1.10;99.90
21163;DHT22;10739;52.198;20.908;2023-12-07T00:25:35;-1.20;99.90
21163;DHT22;10739;52.198;20.908;2023-12-07T00:28:01;-1.10;99.90
21163;DHT22;10739;52.198;20.908;2023-12-07T00:30:27;-1.10;99.90
21163;DHT22;10739;52.198;20.908;2023-12-07T00:32:53;-1.10;99.90
21163;DHT22;10739;52.198;20.908;2023-12-07T00:35:20;-1.10;99.90
21163;DHT22;10739;52.198;20.908;2023-12-07T00:37:48;-1.00;99.90
21163;DHT22;10739;52.198;20.908;2023-12-07T00:40:14;-1.00;99.90
21163;DHT22;10739;52.198;20.908;2023-12-07T00:42:41;-1.00;99.90
21163;DHT22;10739;52.198;20.908;2023-12-07T00:45:08;-1.00;99.90
21163;DHT22;10739;52.198;20.908;2023-12-07T00:47:34;-1.00;99.90
21163;DHT22;10739;52.198;20.908;2023-12-07T00:50:01;-1.00;99.90
21163;DHT22;10739;52.198;20.908;2023-12-07T00:52:27;-0.90;99.90
21163;DHT22;10739;52.198;20.908;2023-12-07T00:54:54;-0.90;99.90
21163;DHT22;10739;52.198;20.908;2023-12-07T00:57:20;-0.90;99.90
21163;DHT22;10739;52.198;20.908;2023-12-07T00:59:46;-0.90;99.90
21163;DHT22;10739;52.198;20.908;2023-12-07T01:02:12;-0.90;99.90
21163;DHT22;10739;52.198;20.908;2023-12-07T01:04:39;-0.90;99.90
21163;DHT22;10739;52.198;20.908;2023-12-07T01:07:05;-0.90;99.90
21163;DHT22;10739;52.198;20.908;2023-12-07T01:09:31;-0.90;99.90
21163;DHT22;10739;52.198;20.908;2023-12-07T01:11:59;-0.90;99.90
21163;DHT22;10739;52.198;20.908;2023-12-07T01:14:25;-0.90;99.90
21163;DHT22;10739;52.198;20.908;2023-12-07T01:16:52;-0.90;99.90
21163;DHT22;10739;52.198;20.908;2023-12-07T01:19:18;-0.90;99.90
21163;DHT22;10739;52.198;20.908;2023-12-07T01:21:44;-0.90;99.90
21163;DHT22;10739;52.198;20.908;2023-12-07T01:24:11;-0.90;99.90
21163;DHT22;10739;52.198;20.908;2023-12-07T01:26:37;-0.90;99.90
21163;DHT22;10739;52.198;20.908;2023-12-07T01:29:03;-0.90;99.90
21163;DHT22;10739;52.198;20.908;2023-12-07T01:31:30;-0.90;99.90
21163;DHT22;10739;52.198;20.908;2023-12-07T01:33:56;-0.80;99.90
21163;DHT22;10739;52.198;20.908;2023-12-07T01:36:22;-0.90;99.90
21163;DHT22;10739;52.198;20.908;2023-12-07T01:38:49;-0.90;99.90
21163;DHT22;10739;52.198;20.908;2023-12-07T01:41:15;-0.90;99.90
21163;DHT22;10739;52.198;20.908;2023-12-07T01:43:46;-0.90;99.90
21163;DHT22;10739;52.198;20.908;2023-12-07T01:46:16;-0.90;99.90
21163;DHT22;10739;52.198;20.908;2023-12-07T01:48:43;-0.90;99.90
21163;DHT22;10739;52.198;20.908;2023-12-07T01:51:11;-0.90;99.90
21163;DHT22;10739;52.198;20.908;2023-12-07T01:53:39;-0.90;99.90
21163;DHT22;10739;52.198;20.908;2023-12-07T01:56:06;-0.90;99.90
21163;DHT22;10739;52.198;20.908;2023-12-07T01:58:34;-0.90;99.90
21163;DHT22;10739;52.198;20.908;2023-12-07T02:01:02;-0.90;99.90
21163;DHT22;10739;52.198;20.908;2023-12-07T02:03:30;-0.90;99.90
21163;DHT22;10739;52.198;20.908;2023-12-07T02:05:58;-0.90;99.90
21163;DHT22;10739;52.198;20.908;2023-12-07T02:08:25;-0.90;99.90
21163;DHT22;10739;52.198;20.908;2023-12-07T02:10:51;-0.90;99.90
21163;DHT22;10739;52.198;20.908;2023-12-07T02:13:21;-0.90;99.90
21163;DHT22;10739;52.198;20.908;2023-12-07T02:15:47;-0.90;99.90
21163;DHT22;10739;52.198;20.908;2023-12-07T02:18:40;-0.80;99.90
21163;DHT22;10739;52.198;20.908;2023-12-07T02:23:54;-0.80;99.90
21163;DHT22;10739;52.198;20.908;2023-12-07T02:26:22;-0.80;99.90
21163;DHT22;10739;52.198;20.908;2023-12-07T02:28:56;-0.80;99.90
21163;DHT22;10739;52.198;20.908;2023-12-07T02:31:23;-0.80;99.90
21163;DHT22;10739;52.198;20.908;2023-12-07T02:33:49;-0.80;99.90
21163;DHT22;10739;52.198;20.908;2023-12-07T02:36:20;-0.80;99.90
21163;DHT22;10739;52.198;20.908;2023-12-07T02:38:51;-0.80;99.90
21163;DHT22;10739;52.198;20.908;2023-12-07T02:41:20;-0.80;99.90
21163;DHT22;10739;52.198;20.908;2023-12-07T02:43:47;-0.80;99.90
21163;DHT22;10739;52.198;20.908;2023-12-07T02:46:14;-0.80;99.90
21163;DHT22;10739;52.198;20.908;2023-12-07T02:48:40;-0.70;99.90
21163;DHT22;10739;52.198;20.908;2023-12-07T02:51:06;-0.70;99.90
21163;DHT22;10739;52.198;20.908;2023-12-07T02:53:33;-0.70;99.90
21163;DHT22;10739;52.198;20.908;2023-12-07T02:55:59;-0.70;99.90
21163;DHT22;10739;52.198;20.908;2023-12-07T02:58:26;-0.70;99.90
21163;DHT22;10739;52.198;20.908;2023-12-07T03:00:52;-0.70;99.90
21163;DHT22;10739;52.198;20.908;2023-12-07T03:03:18;-0.70;99.90
21163;DHT22;10739;52.198;20.908;2023-12-07T03:05:45;-0.70;99.90
21163;DHT22;10739;52.198;20.908;2023-12-07T03:08:11;-0.70;99.90
21163;DHT22;10739;52.198;20.908;2023-12-07T03:10:37;-0.60;99.90
21163;DHT22;10739;52.198;20.908;2023-12-07T03:13:03;-0.60;99.90
21163;DHT22;10739;52.198;20.908;2023-12-07T03:15:30;-0.60;99.90
21163;DHT22;10739;52.198;20.908;2023-12-07T03:17:56;-0.60;99.90
21163;DHT22;10739;52.198;20.908;2023-12-07T03:20:22;-0.60;99.90
21163;DHT22;10739;52.198;20.908;2023-12-07T03:22:49;-0.60;99.90
21163;DHT22;10739;52.198;20.908;2023-12-07T03:25:15;-0.60;99.90
21163;DHT22;10739;52.198;20.908;2023-12-07T03:27:41;-0.60;99.90
21163;DHT22;10739;52.198;20.908;2023-12-07T03:30:08;-0.60;99.90
21163;DHT22;10739;52.198;20.908;2023-12-07T03:32:35;-0.60;99.90
21163;DHT22;10739;52.198;20.908;2023-12-07T03:35:01;-0.60;99.90
21163;DHT22;10739;52.198;20.908;2023-12-07T03:37:27;-0.60;99.90
21163;DHT22;10739;52.198;20.908;2023-12-07T03:39:54;-0.60;99.90
21163;DHT22;10739;52.198;20.908;2023-12-07T03:42:20;-0.60;99.90
21163;DHT22;10739;52.198;20.908;2023-12-07T03:44:46;-0.60;99.90
21163;DHT22;10739;52.198;20.908;2023-12-07T03:47:13;-0.60;99.90
21163;DHT22;10739;52.198;20.908;2023-12-07T03:49:39;-0.60;99.90
21163;DHT22;10739;52.198;20.908;2023-12-07T03:52:07;-0.60;99.90
21163;DHT22;10739;52.198;20.908;2023-12-07T03:54:33;-0.50;99.90
21163;DHT22;10739;52.198;20.908;2023-12-07T03:57:00;-0.60;99.90
21163;DHT22;10739;52.198;20.908;2023-12-07T03:59:26;-0.60;99.90
21163;DHT22;10739;52.198;20.908;2023-12-07T04:01:53;-0.50;99.90
21163;DHT22;10739;52.198;20.908;2023-12-07T04:04:19;-0.60;99.90
21163;DHT22;10739;52.198;20.908;2023-12-07T04:06:45;-0.60;99.90
21163;DHT22;10739;52.198;20.908;2023-12-07T04:09:12;-0.60;99.90
21163;DHT22;10739;52.198;20.908;2023-12-07T04:11:38;-0.60;99.90
21163;DHT22;10739;52.198;20.908;2023-12-07T04:14:04;-0.60;99.90
21163;DHT22;10739;52.198;20.908;2023-12-07T04:16:30;-0.60;99.90
21163;DHT22;10739;52.198;20.908;2023-12-07T04:18:57;-0.60;99.90
21163;DHT22;10739;52.198;20.908;2023-12-07T04:21:24;-0.60;99.90
21163;DHT22;10739;52.198;20.908;2023-12-07T04:23:50;-0.60;99.90
21163;DHT22;10739;52.198;20.908;2023-12-07T04:26:16;-0.60;99.90
21163;DHT22;10739;52.198;20.908;2023-12-07T04:28:43;-0.60;99.90
21163;DHT22;10739;52.198;20.908;2023-12-07T04:31:09;-0.60;99.90
21163;DHT22;10739;52.198;20.908;2023-12-07T04:33:35;-0.60;99.90
21163;DHT22;10739;52.198;20.908;2023-12-07T04:36:03;-0.60;99.90
21163;DHT22;10739;52.198;20.908;2023-12-07T04:38:30;-0.60;99.90
21163;DHT22;10739;52.198;20.908;2023-12-07T04:40:58;-0.60;99.90
21163;DHT22;10739;52.198;20.908;2023-12-07T04:43:24;-0.60;99.90
21163;DHT22;10739;52.198;20.908;2023-12-07T04:45:50;-0.60;99.90
21163;DHT22;10739;52.198;20.908;2023-12-07T04:48:17;-0.60;99.90
21163;DHT22;10739;52.198;20.908;2023-12-07T04:50:43;-0.60;99.90
21163;DHT22;10739;52.198;20.908;2023-12-07T04:53:09;-0.60;99.90
21163;DHT22;10739;52.198;20.908;2023-12-07T04:55:36;-0.60;99.90
21163;DHT22;10739;52.198;20.908;2023-12-07T04:58:02;-0.60;99.90
21163;DHT22;10739;52.198;20.908;2023-12-07T05:00:29;-0.60;99.90
21163;DHT22;10739;52.198;20.908;2023-12-07T05:02:55;-0.60;99.90
21163;DHT22;10739;52.198;20.908;2023-12-07T05:05:22;-0.60;99.90
21163;DHT22;10739;52.198;20.908;2023-12-07T05:07:50;-0.60;99.90
21163;DHT22;10739;52.198;20.908;2023-12-07T05:10:16;-0.60;99.90
21163;DHT22;10739;52.198;20.908;2023-12-07T05:12:43;-0.60;99.90
21163;DHT22;10739;52.198;20.908;2023-12-07T05:15:09;-0.60;99.90
21163;DHT22;10739;52.198;20.908;2023-12-07T05:17:35;-0.60;99.90
21163;DHT22;10739;52.198;20.908;2023-12-07T05:20:02;-0.60;99.90
21163;DHT22;10739;52.198;20.908;2023-12-07T05:22:30;-0.60;99.90
21163;DHT22;10739;52.198;20.908;2023-12-07T05:24:57;-0.60;99.90
21163;DHT22;10739;52.198;20.908;2023-12-07T05:27:24;-0.60;99.90
21163;DHT22;10739;52.198;20.908;2023-12-07T05:29:50;-0.50;99.90
21163;DHT22;10739;52.198;20.908;2023-12-07T05:32:16;-0.60;99.90
21163;DHT22;10739;52.198;20.908;2023-12-07T05:34:43;-0.60;99.90
21163;DHT22;10739;52.198;20.908;2023-12-07T05:37:09;-0.60;99.90
21163;DHT22;10739;52.198;20.908;2023-12-07T05:39:35;-0.60;99.90
21163;DHT22;10739;52.198;20.908;2023-12-07T05:42:02;-0.60;99.90
21163;DHT22;10739;52.198;20.908;2023-12-07T05:44:30;-0.60;99.90
21163;DHT22;10739;52.198;20.908;2023-12-07T05:46:57;-0.60;99.90
21163;DHT22;10739;52.198;20.908;2023-12-07T05:49:27;-0.60;99.90
21163;DHT22;10739;52.198;20.908;2023-12-07T05:51:53;-0.60;99.90
21163;DHT22;10739;52.198;20.908;2023-12-07T05:54:19;-0.60;99.90
21163;DHT22;10739;52.198;20.908;2023-12-07T05:56:49;-0.50;99.90
21163;DHT22;10739;52.198;20.908;2023-12-07T05:59:15;-0.50;99.90
21163;DHT22;10739;52.198;20.908;2023-12-07T06:01:41;-0.50;99.90
21163;DHT22;10739;52.198;20.908;2023-12-07T06:04:09;-0.50;99.90
21163;DHT22;10739;52.198;20.908;2023-12-07T06:06:38;-0.60;99.90
21163;DHT22;10739;52.198;20.908;2023-12-07T06:09:05;-0.60;99.90
21163;DHT22;10739;52.198;20.908;2023-12-07T06:11:32;-0.60;99.90
21163;DHT22;10739;52.198;20.908;2023-12-07T06:13:59;-0.60;99.90
21163;DHT22;10739;52.198;20.908;2023-12-07T06:16:25;-0.60;99.90
21163;DHT22;10739;52.198;20.908;2023-12-07T06:18:52;-0.60;99.90
21163;DHT22;10739;52.198;20.908;2023-12-07T06:21:19;-0.60;99.90
21163;DHT22;10739;52.198;20.908;2023-12-07T06:23:46;-0.60;99.90
21163;DHT22;10739;52.198;20.908;2023-12-07T06:26:12;-0.60;99.90
21163;DHT22;10739;52.198;20.908;2023-12-07T06:28:39;-0.60;99.90
21163;DHT22;10739;52.198;20.908;2023-12-07T06:31:06;-0.50;99.90
21163;DHT22;10739;52.198;20.908;2023-12-07T06:33:35;-0.50;99.90
21163;DHT22;10739;52.198;20.908;2023-12-07T06:36:02;-0.50;99.90
21163;DHT22;10739;52.198;20.908;2023-12-07T06:38:31;-0.50;99.90
21163;DHT22;10739;52.198;20.908;2023-12-07T06:40:57;-0.60;99.90
21163;DHT22;10739;52.198;20.908;2023-12-07T06:43:23;-0.50;99.90
21163;DHT22;10739;52.198;20.908;2023-12-07T06:45:51;-0.50;99.90
21163;DHT22;10739;52.198;20.908;2023-12-07T06:48:17;-0.50;99.90
21163;DHT22;10739;52.198;20.908;2023-12-07T06:50:44;-0.50;99.90
21163;DHT22;10739;52.198;20.908;2023-12-07T06:53:10;-0.50;99.90
21163;DHT22;10739;52.198;20.908;2023-12-07T06:55:36;-0.40;99.90
21163;DHT22;10739;52.198;20.908;2023-12-07T06:58:03;-0.50;99.90
21163;DHT22;10739;52.198;20.908;2023-12-07T07:00:31;-0.50;99.90
21163;DHT22;10739;52.198;20.908;2023-12-07T07:02:58;-0.50;99.90
21163;DHT22;10739;52.198;20.908;2023-12-07T07:05:25;-0.40;99.90
21163;DHT22;10739;52.198;20.908;2023-12-07T07:07:51;-0.40;99.90
21163;DHT22;10739;52.198;20.908;2023-12-07T07:10:18;-0.40;99.90
21163;DHT22;10739;52.198;20.908;2023-12-07T07:12:44;-0.40;99.90
21163;DHT22;10739;52.198;20.908;2023-12-07T07:15:10;-0.40;99.90
21163;DHT22;10739;52.198;20.908;2023-12-07T07:17:37;-0.40;99.90
21163;DHT22;10739;52.198;20.908;2023-12-07T07:20:03;-0.40;99.90
21163;DHT22;10739;52.198;20.908;2023-12-07T07:22:30;-0.40;99.90
21163;DHT22;10739;52.198;20.908;2023-12-07T07:24:56;-0.40;99.90
21163;DHT22;10739;52.198;20.908;2023-12-07T07:27:23;-0.40;99.90
21163;DHT22;10739;52.198;20.908;2023-12-07T07:29:49;-0.30;99.90
21163;DHT22;10739;52.198;20.908;2023-12-07T07:32:16;-0.40;99.90
21163;DHT22;10739;52.198;20.908;2023-12-07T07:34:42;-0.30;99.90
21163;DHT22;10739;52.198;20.908;2023-12-07T07:37:09;-0.30;99.90
21163;DHT22;10739;52.198;20.908;2023-12-07T07:39:35;-0.30;99.90
21163;DHT22;10739;52.198;20.908;2023-12-07T07:42:01;-0.30;99.90
21163;DHT22;10739;52.198;20.908;2023-12-07T07:44:28;-0.30;99.90
21163;DHT22;10739;52.198;20.908;2023-12-07T07:46:54;-0.40;99.90
21163;DHT22;10739;52.198;20.908;2023-12-07T07:49:20;-0.40;99.90
21163;DHT22;10739;52.198;20.908;2023-12-07T07:51:47;-0.30;99.90
21163;DHT22;10739;52.198;20.908;2023-12-07T07:54:13;-0.30;99.90
21163;DHT22;10739;52.198;20.908;2023-12-07T07:56:39;-0.30;99.90
21163;DHT22;10739;52.198;20.908;2023-12-07T07:59:05;-0.30;99.90
21163;DHT22;10739;52.198;20.908;2023-12-07T08:01:32;-0.20;99.90
21163;DHT22;10739;52.198;20.908;2023-12-07T08:03:58;-0.20;99.90
21163;DHT22;10739;52.198;20.908;2023-12-07T08:06:25;-0.20;99.90
21163;DHT22;10739;52.198;20.908;2023-12-07T08:08:51;-0.20;99.90
21163;DHT22;10739;52.198;20.908;2023-12-07T08:11:18;-0.20;99.90
21163;DHT22;10739;52.198;20.908;2023-12-07T08:13:44;-0.20;99.90
21163;DHT22;10739;52.198;20.908;2023-12-07T08:16:11;-0.20;99.90
21163;DHT22;10739;52.198;20.908;2023-12-07T08:18:38;-0.20;99.90
21163;DHT22;10739;52.198;20.908;2023-12-07T08:21:04;-0.10;99.90
21163;DHT22;10739;52.198;20.908;2023-12-07T08:23:34;-0.10;99.90
21163;DHT22;10739;52.198;20.908;2023-12-07T08:26:01;-0.10;99.90
21163;DHT22;10739;52.198;20.908;2023-12-07T08:28:27;0.00;99.90
21163;DHT22;10739;52.198;20.908;2023-12-07T08:30:54;-0.10;99.90
21163;DHT22;10739;52.198;20.908;2023-12-07T08:33:21;-0.10;99.90
21163;DHT22;10739;52.198;20.908;2023-12-07T08:35:47;0.00;99.90
21163;DHT22;10739;52.198;20.908;2023-12-07T08:38:20;0.00;99.90
21163;DHT22;10739;52.198;20.908;2023-12-07T08:40:47;-0.10;99.90
21163;DHT22;10739;52.198;20.908;2023-12-07T08:43:14;0.00;99.90
21163;DHT22;10739;52.198;20.908;2023-12-07T08:45:40;0.00;99.90
21163;DHT22;10739;52.198;20.908;2023-12-07T08:48:06;0.00;99.90
21163;DHT22;10739;52.198;20.908;2023-12-07T08:50:32;0.00;99.90
21163;DHT22;10739;52.198;20.908;2023-12-07T08:52:59;0.10;99.90
21163;DHT22;10739;52.198;20.908;2023-12-07T08:55:25;0.10;99.90
21163;DHT22;10739;52.198;20.908;2023-12-07T08:57:53;0.10;99.90
21163;DHT22;10739;52.198;20.908;2023-12-07T09:00:20;0.00;99.90
21163;DHT22;10739;52.198;20.908;2023-12-07T09:02:50;0.00;99.90
21163;DHT22;10739;52.198;20.908;2023-12-07T09:05:17;0.10;99.90
21163;DHT22;10739;52.198;20.908;2023-12-07T09:07:44;0.10;99.90
21163;DHT22;10739;52.198;20.908;2023-12-07T09:10:12;0.10;99.90
21163;DHT22;10739;52.198;20.908;2023-12-07T09:12:38;0.10;99.90
21163;DHT22;10739;52.198;20.908;2023-12-07T09:15:05;0.00;99.90
21163;DHT22;10739;52.198;20.908;2023-12-07T09:17:36;0.10;99.90
21163;DHT22;10739;52.198;20.908;2023-12-07T09:20:10;0.00;99.90
21163;DHT22;10739;52.198;20.908;2023-12-07T09:22:44;0.10;99.90
21163;DHT22;10739;52.198;20.908;2023-12-07T09:25:11;0.10;99.90
21163;DHT22;10739;52.198;20.908;2023-12-07T09:27:39;0.10;99.90
21163;DHT22;10739;52.198;20.908;2023-12-07T09:30:10;0.10;99.90
21163;DHT22;10739;52.198;20.908;2023-12-07T09:32:38;0.10;99.90
21163;DHT22;10739;52.198;20.908;2023-12-07T09:35:06;0.10;99.90
21163;DHT22;10739;52.198;20.908;2023-12-07T09:37:34;0.10;99.90
21163;DHT22;10739;52.198;20.908;2023-12-07T09:40:01;0.10;99.90
21163;DHT22;10739;52.198;20.908;2023-12-07T09:42:30;0.10;99.90
21163;DHT22;10739;52.198;20.908;2023-12-07T09:44:57;0.10;99.90
21163;DHT22;10739;52.198;20.908;2023-12-07T09:47:25;0.10;99.90
21163;DHT22;10739;52.198;20.908;2023-12-07T09:49:53;0.20;99.90
21163;DHT22;10739;52.198;20.908;2023-12-07T09:52:21;0.20;99.90
21163;DHT22;10739;52.198;20.908;2023-12-07T09:54:49;0.20;99.90
21163;DHT22;10739;52.198;20.908;2023-12-07T09:57:17;0.20;99.90
21163;DHT22;10739;52.198;20.908;2023-12-07T09:59:44;0.30;99.90
21163;DHT22;10739;52.198;20.908;2023-12-07T10:02:10;0.40;99.90
21163;DHT22;10739;52.198;20.908;2023-12-07T10:04:36;0.30;99.90
21163;DHT22;10739;52.198;20.908;2023-12-07T10:07:03;0.30;99.90
21163;DHT22;10739;52.198;20.908;2023-12-07T10:09:29;0.30;99.90
21163;DHT22;10739;52.198;20.908;2023-12-07T10:12:05;0.30;99.90
21163;DHT22;10739;52.198;20.908;2023-12-07T10:14:32;0.20;99.90
21163;DHT22;10739;52.198;20.908;2023-12-07T10:17:00;0.30;99.90
21163;DHT22;10739;52.198;20.908;2023-12-07T10:19:26;0.30;99.90
21163;DHT22;10739;52.198;20.908;2023-12-07T10:21:54;0.30;99.90
21163;DHT22;10739;52.198;20.908;2023-12-07T10:24:22;0.30;99.90
21163;DHT22;10739;52.198;20.908;2023-12-07T10:26:51;0.30;99.90
21163;DHT22;10739;52.198;20.908;2023-12-07T10:29:18;0.40;99.90
21163;DHT22;10739;52.198;20.908;2023-12-07T10:31:45;0.40;99.90
21163;DHT22;10739;52.198;20.908;2023-12-07T10:34:18;0.40;99.90
21163;DHT22;10739;52.198;20.908;2023-12-07T10:36:47;0.40;99.90
21163;DHT22;10739;52.198;20.908;2023-12-07T10:39:14;0.50;99.90
21163;DHT22;10739;52.198;20.908;2023-12-07T10:41:43;0.50;99.90
21163;DHT22;10739;52.198;20.908;2023-12-07T10:44:13;0.50;99.90
21163;DHT22;10739;52.198;20.908;2023-12-07T10:46:42;0.50;99.90
21163;DHT22;10739;52.198;20.908;2023-12-07T10:49:15;0.50;99.90
21163;DHT22;10739;52.198;20.908;2023-12-07T10:51:51;0.40;99.90
21163;DHT22;10739;52.198;20.908;2023-12-07T10:54:34;0.50;99.90
21163;DHT22;10739;52.198;20.908;2023-12-07T10:57:24;0.50;99.90
21163;DHT22;10739;52.198;20.908;2023-12-07T10:59:53;0.50;99.90
21163;DHT22;10739;52.198;20.908;2023-12-07T11:02:23;0.50;99.90
21163;DHT22;10739;52.198;20.908;2023-12-07T11:04:56;0.50;99.90
21163;DHT22;10739;52.198;20.908;2023-12-07T11:07:26;0.40;99.90
21163;DHT22;10739;52.198;20.908;2023-12-07T11:10:11;0.50;99.90
21163;DHT22;10739;52.198;20.908;2023-12-07T11:12:56;0.50;99.90
21163;DHT22;10739;52.198;20.908;2023-12-07T11:15:26;0.50;99.90
21163;DHT22;10739;52.198;20.908;2023-12-07T11:17:54;0.60;99.90
21163;DHT22;10739;52.198;20.908;2023-12-07T11:20:32;0.60;99.90
21163;DHT22;10739;52.198;20.908;2023-12-07T11:23:10;0.60;99.90
21163;DHT22;10739;52.198;20.908;2023-12-07T11:25:39;0.50;99.90
21163;DHT22;10739;52.198;20.908;2023-12-07T11:28:11;0.50;99.90
21163;DHT22;10739;52.198;20.908;2023-12-07T11:30:38;0.50;99.90
21163;DHT22;10739;52.198;20.908;2023-12-07T11:33:09;0.60;99.90
21163;DHT22;10739;52.198;20.908;2023-12-07T11:38:28;0.50;99.90
21163;DHT22;10739;52.198;20.908;2023-12-07T11:40:56;0.50;99.90
21163;DHT22;10739;52.198;20.908;2023-12-07T11:45:59;0.40;99.90
21163;DHT22;10739;52.198;20.908;2023-12-07T11:48:25;0.40;99.90
21163;DHT22;10739;52.198;20.908;2023-12-07T11:51:07;0.40;99.90
21163;DHT22;10739;52.198;20.908;2023-12-07T11:53:36;0.50;99.90
21163;DHT22;10739;52.198;20.908;2023-12-07T11:56:05;0.40;99.90
21163;DHT22;10739;52.198;20.908;2023-12-07T11:58:33;0.40;99.90
21163;DHT22;10739;52.198;20.908;2023-12-07T12:01:02;0.40;99.90
21163;DHT22;10739;52.198;20.908;2023-12-07T12:03:31;2.10;99.90
21163;DHT22;10739;52.198;20.908;2023-12-07T12:05:58;0.30;99.90
21163;DHT22;10739;52.198;20.908;2023-12-07T12:08:27;0.30;99.90
21163;DHT22;10739;52.198;20.908;2023-12-07T12:10:57;0.30;99.90
21163;DHT22;10739;52.198;20.908;2023-12-07T12:13:28;0.20;99.90
21163;DHT22;10739;52.198;20.908;2023-12-07T12:15:59;0.10;99.90
21163;DHT22;10739;52.198;20.908;2023-12-07T12:18:27;0.10;99.90
21163;DHT22;10739;52.198;20.908;2023-12-07T12:20:54;0.20;99.90
21163;DHT22;10739;52.198;20.908;2023-12-07T12:23:21;0.20;99.90
21163;DHT22;10739;52.198;20.908;2023-12-07T12:25:48;0.20;99.90
21163;DHT22;10739;52.198;20.908;2023-12-07T12:28:19;0.30;99.90
21163;DHT22;10739;52.198;20.908;2023-12-07T12:30:48;0.30;99.90
21163;DHT22;10739;52.198;20.908;2023-12-07T12:33:16;0.30;99.90
21163;DHT22;10739;52.198;20.908;2023-12-07T12:35:43;0.20;99.90
21163;DHT22;10739;52.198;20.908;2023-12-07T12:38:10;0.10;99.90
21163;DHT22;10739;52.198;20.908;2023-12-07T12:40:38;0.10;99.90
21163;DHT22;10739;52.198;20.908;2023-12-07T12:43:05;0.10;99.90
21163;DHT22;10739;52.198;20.908;2023-12-07T12:45:33;0.10;99.90
21163;DHT22;10739;52.198;20.908;2023-12-07T12:48:00;0.00;99.90
21163;DHT22;10739;52.198;20.908;2023-12-07T12:50:37;0.00;99.90
21163;DHT22;10739;52.198;20.908;2023-12-07T12:53:06;0.00;99.90
21163;DHT22;10739;52.198;20.908;2023-12-07T12:55:40;0.00;99.90
21163;DHT22;10739;52.198;20.908;2023-12-07T12:58:09;0.10;99.90
21163;DHT22;10739;52.198;20.908;2023-12-07T13:00:39;0.10;99.90
21163;DHT22;10739;52.198;20.908;2023-12-07T13:03:07;0.00;99.90
21163;DHT22;10739;52.198;20.908;2023-12-07T13:05:33;0.00;99.90
21163;DHT22;10739;52.198;20.908;2023-12-07T13:08:01;0.00;99.90
21163;DHT22;10739;52.198;20.908;2023-12-07T13:10:27;0.00;99.90
21163;DHT22;10739;52.198;20.908;2023-12-07T13:12:54;0.00;99.90
21163;DHT22;10739;52.198;20.908;2023-12-07T13:15:21;0.00;99.90
21163;DHT22;10739;52.198;20.908;2023-12-07T13:17:48;0.00;99.90
21163;DHT22;10739;52.198;20.908;2023-12-07T13:20:14;-0.10;99.90
21163;DHT22;10739;52.198;20.908;2023-12-07T13:22:41;-0.10;99.90
21163;DHT22;10739;52.198;20.908;2023-12-07T13:25:12;-0.10;99.90
21163;DHT22;10739;52.198;20.908;2023-12-07T13:27:40;-0.10;99.90
21163;DHT22;10739;52.198;20.908;2023-12-07T13:30:08;-0.10;99.90
21163;DHT22;10739;52.198;20.908;2023-12-07T13:32:36;0.00;99.90
21163;DHT22;10739;52.198;20.908;2023-12-07T13:35:06;0.00;99.90
21163;DHT22;10739;52.198;20.908;2023-12-07T13:37:34;0.00;99.90
21163;DHT22;10739;52.198;20.908;2023-12-07T13:40:00;-0.10;99.90
21163;DHT22;10739;52.198;20.908;2023-12-07T13:42:30;-0.10;99.90
21163;DHT22;10739;52.198;20.908;2023-12-07T13:44:58;-0.20;99.90
21163;DHT22;10739;52.198;20.908;2023-12-07T13:47:26;-0.30;99.90
21163;DHT22;10739;52.198;20.908;2023-12-07T13:50:03;-0.40;99.90
21163;DHT22;10739;52.198;20.908;2023-12-07T13:52:30;-0.40;99.90
21163;DHT22;10739;52.198;20.908;2023-12-07T13:54:57;-0.40;99.90
21163;DHT22;10739;52.198;20.908;2023-12-07T13:57:24;-0.40;99.90
21163;DHT22;10739;52.198;20.908;2023-12-07T13:59:51;-0.40;99.90
21163;DHT22;10739;52.198;20.908;2023-12-07T14:02:18;-0.40;99.90
21163;DHT22;10739;52.198;20.908;2023-12-07T14:04:46;-0.40;99.90
21163;DHT22;10739;52.198;20.908;2023-12-07T14:07:18;-0.50;99.90
21163;DHT22;10739;52.198;20.908;2023-12-07T14:09:48;-0.50;99.90
21163;DHT22;10739;52.198;20.908;2023-12-07T14:12:15;-0.50;99.90
21163;DHT22;10739;52.198;20.908;2023-12-07T14:14:42;-0.50;99.90
21163;DHT22;10739;52.198;20.908;2023-12-07T14:17:14;-0.50;99.90
21163;DHT22;10739;52.198;20.908;2023-12-07T14:19:41;-0.60;99.90
21163;DHT22;10739;52.198;20.908;2023-12-07T14:22:08;-0.50;99.90
21163;DHT22;10739;52.198;20.908;2023-12-07T14:24:36;-0.60;99.90
21163;DHT22;10739;52.198;20.908;2023-12-07T14:27:03;-0.50;99.90
21163;DHT22;10739;52.198;20.908;2023-12-07T14:29:32;-0.50;99.90
21163;DHT22;10739;52.198;20.908;2023-12-07T14:31:59;-0.50;99.90
21163;DHT22;10739;52.198;20.908;2023-12-07T14:34:26;-0.50;99.90
21163;DHT22;10739;52.198;20.908;2023-12-07T14:36:53;-0.50;99.90
21163;DHT22;10739;52.198;20.908;2023-12-07T14:39:20;-0.50;99.90
21163;DHT22;10739;52.198;20.908;2023-12-07T14:41:48;-0.50;99.90
21163;DHT22;10739;52.198;20.908;2023-12-07T14:44:17;-0.50;99.90
21163;DHT22;10739;52.198;20.908;2023-12-07T14:46:45;-0.50;99.90
21163;DHT22;10739;52.198;20.908;2023-12-07T14:49:13;-0.50;99.90
21163;DHT22;10739;52.198;20.908;2023-12-07T14:51:40;-0.50;99.90
21163;DHT22;10739;52.198;20.908;2023-12-07T14:54:07;-0.40;99.90
21163;DHT22;10739;52.198;20.908;2023-12-07T14:56:38;-0.50;99.90
21163;DHT22;10739;52.198;20.908;2023-12-07T14:59:06;-0.60;99.90
21163;DHT22;10739;52.198;20.908;2023-12-07T15:01:39;-0.60;99.90
21163;DHT22;10739;52.198;20.908;2023-12-07T15:04:06;-0.60;99.90
21163;DHT22;10739;52.198;20.908;2023-12-07T15:06:33;-0.60;99.90
21163;DHT22;10739;52.198;20.908;2023-12-07T15:08:59;-0.60;99.90
21163;DHT22;10739;52.198;20.908;2023-12-07T15:11:26;-0.50;99.90
21163;DHT22;10739;52.198;20.908;2023-12-07T15:13:52;-0.60;99.90
21163;DHT22;10739;52.198;20.908;2023-12-07T15:16:18;-0.60;99.90
21163;DHT22;10739;52.198;20.908;2023-12-07T15:18:45;-0.60;99.90
21163;DHT22;10739;52.198;20.908;2023-12-07T15:21:14;-0.60;99.90
21163;DHT22;10739;52.198;20.908;2023-12-07T15:23:42;-0.60;99.90
21163;DHT22;10739;52.198;20.908;2023-12-07T15:26:14;-0.70;99.90
21163;DHT22;10739;52.198;20.908;2023-12-07T15:28:42;-0.70;99.90
21163;DHT22;10739;52.198;20.908;2023-12-07T15:31:11;-0.70;99.90